createdAt,value
2023-04-30T00:01:06.190Z,8.58
2023-04-30T00:03:33.347Z,8.51
2023-04-30T00:06:00.717Z,8.43
2023-04-30T00:08:28.709Z,8.36
2023-04-30T00:10:56.056Z,8.35
2023-04-30T00:13:23.778Z,8.34
2023-04-30T00:15:51.253Z,8.37
2023-04-30T00:18:18.492Z,8.38
2023-04-30T00:20:45.584Z,8.34
2023-04-30T00:23:12.678Z,8.30
2023-04-30T00:25:39.793Z,8.34
2023-04-30T00:28:06.877Z,8.37
2023-04-30T00:30:33.927Z,8.30
2023-04-30T00:33:01.184Z,8.23
2023-04-30T00:35:28.269Z,8.19
2023-04-30T00:37:55.536Z,8.19
2023-04-30T00:40:22.682Z,8.15
2023-04-30T00:42:52.617Z,8.09
2023-04-30T00:45:22.486Z,8.11
2023-04-30T00:47:50.253Z,8.09
2023-04-30T00:50:17.468Z,8.01
2023-04-30T00:52:45.200Z,8.03
2023-04-30T00:55:12.937Z,8.06
2023-04-30T00:57:40.996Z,8.05
2023-04-30T01:00:11.644Z,7.98
2023-04-30T01:02:38.973Z,7.90
2023-04-30T01:05:07.547Z,7.87
2023-04-30T01:07:35.945Z,7.88
2023-04-30T01:10:03.273Z,7.88
2023-04-30T01:12:54.442Z,7.85
2023-04-30T01:15:36.347Z,7.85
2023-04-30T01:18:13.278Z,7.79
2023-04-30T01:20:50.552Z,7.81
2023-04-30T01:23:52.675Z,7.79
2023-04-30T01:26:31.557Z,7.78
2023-04-30T01:29:02.925Z,7.74
2023-04-30T01:31:30.119Z,7.63
2023-04-30T01:33:57.240Z,7.59
2023-04-30T01:36:57.726Z,7.56
2023-04-30T01:39:40.057Z,7.54
2023-04-30T01:42:47.142Z,7.58
2023-04-30T01:45:32.934Z,7.64
2023-04-30T01:48:08.634Z,7.68
2023-04-30T01:50:44.024Z,7.74
2023-04-30T01:53:20.993Z,7.80
2023-04-30T01:55:57.424Z,7.74
2023-04-30T01:58:25.907Z,7.81
2023-04-30T02:00:53.762Z,7.78
2023-04-30T02:03:20.940Z,7.79
2023-04-30T02:05:48.818Z,7.78
2023-04-30T02:08:15.991Z,7.82
2023-04-30T02:10:43.114Z,7.83
2023-04-30T02:13:10.250Z,7.76
2023-04-30T02:15:37.302Z,7.78
2023-04-30T02:18:04.412Z,7.72
2023-04-30T02:20:31.498Z,7.67
2023-04-30T02:22:58.910Z,7.67
2023-04-30T02:25:26.314Z,7.59
2023-04-30T02:27:53.876Z,7.58
2023-04-30T02:30:21.117Z,7.62
2023-04-30T02:32:48.338Z,7.62
2023-04-30T02:35:15.524Z,7.66
2023-04-30T02:37:42.724Z,7.65
2023-04-30T02:40:10.666Z,7.54
2023-04-30T02:42:37.903Z,7.46
2023-04-30T02:45:05.502Z,7.45
2023-04-30T02:47:32.583Z,7.44
2023-04-30T02:49:59.678Z,7.42
2023-04-30T02:52:27.661Z,7.43
2023-04-30T02:54:54.953Z,7.38
2023-04-30T02:57:22.240Z,7.38
2023-04-30T02:59:49.353Z,7.35
2023-04-30T03:02:16.730Z,7.36
2023-04-30T03:04:43.868Z,7.35
2023-04-30T03:07:11.464Z,7.35
2023-04-30T03:09:38.544Z,7.31
2023-04-30T03:12:05.948Z,7.21
2023-04-30T03:14:32.989Z,7.12
2023-04-30T03:17:00.037Z,7.05
2023-04-30T03:19:27.105Z,7.08
2023-04-30T03:21:55.264Z,7.12
2023-04-30T03:24:22.440Z,7.11
2023-04-30T03:26:49.643Z,7.06
2023-04-30T03:29:16.955Z,6.96
2023-04-30T03:31:44.177Z,6.93
2023-04-30T03:34:11.467Z,6.88
2023-04-30T03:36:38.588Z,6.87
2023-04-30T03:39:06.417Z,6.94
2023-04-30T03:41:33.609Z,6.99
2023-04-30T03:44:00.699Z,6.95
2023-04-30T03:46:27.962Z,6.96
2023-04-30T03:48:55.333Z,6.99
2023-04-30T03:51:22.497Z,6.86
2023-04-30T03:53:49.623Z,6.84
2023-04-30T03:56:16.776Z,6.85
2023-04-30T03:58:43.939Z,6.88
2023-04-30T04:01:11.095Z,6.91
2023-04-30T04:03:38.425Z,6.89
2023-04-30T04:06:06.009Z,6.91
2023-04-30T04:08:33.177Z,6.87
2023-04-30T04:11:02.803Z,6.80
2023-04-30T04:13:29.823Z,6.68
2023-04-30T04:15:56.940Z,6.62
2023-04-30T04:18:24.279Z,6.51
2023-04-30T04:20:51.497Z,6.55
2023-04-30T04:23:18.622Z,6.55
2023-04-30T04:25:49.605Z,6.55
2023-04-30T04:28:17.210Z,6.56
2023-04-30T04:30:44.654Z,6.63
2023-04-30T04:33:11.729Z,6.64
2023-04-30T04:35:38.881Z,6.67
2023-04-30T04:38:06.243Z,6.73
2023-04-30T04:40:33.467Z,6.81
2023-04-30T04:43:00.650Z,6.83
2023-04-30T04:45:27.778Z,6.93
2023-04-30T04:47:55.149Z,6.94
2023-04-30T04:50:22.768Z,6.98
2023-04-30T04:52:49.856Z,6.91
2023-04-30T04:55:17.645Z,6.92
2023-04-30T04:57:44.856Z,6.93
2023-04-30T05:00:13.070Z,6.94
2023-04-30T05:02:40.315Z,6.99
2023-04-30T05:05:07.910Z,7.02
2023-04-30T05:07:35.208Z,7.03
2023-04-30T05:10:02.327Z,7.02
2023-04-30T05:12:29.394Z,7.10
2023-04-30T05:14:56.509Z,7.13
2023-04-30T05:17:24.141Z,7.22
2023-04-30T05:19:53.113Z,7.28
2023-04-30T05:22:21.624Z,7.34
2023-04-30T05:24:48.738Z,7.36
2023-04-30T05:27:16.691Z,7.50
2023-04-30T05:29:43.755Z,7.55
2023-04-30T05:32:10.905Z,7.58
2023-04-30T05:34:37.972Z,7.65
2023-04-30T05:37:05.062Z,7.72
2023-04-30T05:39:32.172Z,7.74
2023-04-30T05:41:59.472Z,7.82
2023-04-30T05:44:26.707Z,7.89
2023-04-30T05:46:54.085Z,7.93
2023-04-30T05:49:21.213Z,7.99
2023-04-30T05:51:48.370Z,8.04
2023-04-30T05:54:16.394Z,8.11
2023-04-30T05:56:43.477Z,8.18
2023-04-30T05:59:10.595Z,8.29
2023-04-30T06:01:37.748Z,8.36
2023-04-30T06:04:05.172Z,8.48
2023-04-30T06:06:32.578Z,8.59
2023-04-30T06:08:59.766Z,8.71
2023-04-30T06:11:27.232Z,8.82
2023-04-30T06:13:54.354Z,8.93
2023-04-30T06:16:21.637Z,9.14
2023-04-30T06:18:51.633Z,9.19
2023-04-30T06:21:20.738Z,9.34
2023-04-30T06:23:47.805Z,9.34
2023-04-30T06:26:15.390Z,9.28
2023-04-30T06:28:42.431Z,9.44
2023-04-30T06:31:10.941Z,9.43
2023-04-30T06:33:38.038Z,9.60
2023-04-30T06:36:05.972Z,9.65
2023-04-30T06:38:33.114Z,9.84
2023-04-30T06:41:02.334Z,9.93
2023-04-30T06:43:29.472Z,10.09
2023-04-30T06:45:56.634Z,10.23
2023-04-30T06:48:25.750Z,10.40
2023-04-30T06:50:54.065Z,10.57
2023-04-30T06:53:21.589Z,10.69
2023-04-30T06:55:49.136Z,10.86
2023-04-30T06:58:16.373Z,10.93
2023-04-30T07:00:43.384Z,11.05
2023-04-30T07:03:10.842Z,11.19
2023-04-30T07:05:38.119Z,11.31
2023-04-30T07:08:07.082Z,11.46
2023-04-30T07:10:34.398Z,11.53
2023-04-30T07:13:01.852Z,11.59
2023-04-30T07:15:28.935Z,11.74
2023-04-30T07:17:56.151Z,11.68
2023-04-30T07:20:24.159Z,11.80
2023-04-30T07:22:51.268Z,11.96
2023-04-30T07:25:18.524Z,12.05
2023-04-30T07:27:46.232Z,12.02
2023-04-30T07:30:13.955Z,11.96
2023-04-30T07:32:41.610Z,12.23
2023-04-30T07:35:09.343Z,12.34
2023-04-30T07:37:37.172Z,12.53
2023-04-30T07:40:05.909Z,12.64
2023-04-30T07:42:33.147Z,12.74
2023-04-30T07:45:00.788Z,12.72
2023-04-30T07:47:28.427Z,12.76
2023-04-30T07:49:56.145Z,12.75
2023-04-30T07:52:26.008Z,12.81
2023-04-30T07:54:53.117Z,12.81
2023-04-30T07:57:20.317Z,12.86
2023-04-30T07:59:50.212Z,12.78
2023-04-30T08:02:18.575Z,12.87
2023-04-30T08:04:46.374Z,12.89
2023-04-30T08:07:15.603Z,12.92
2023-04-30T08:09:42.709Z,13.04
2023-04-30T08:12:10.275Z,13.12
2023-04-30T08:14:37.369Z,13.25
2023-04-30T08:17:04.796Z,13.47
2023-04-30T08:19:32.125Z,13.49
2023-04-30T08:22:00.514Z,13.55
2023-04-30T08:24:27.635Z,13.57
2023-04-30T08:26:55.155Z,13.55
2023-04-30T08:29:23.008Z,13.46
2023-04-30T08:31:50.152Z,13.57
2023-04-30T08:34:17.449Z,13.57
2023-04-30T08:36:45.051Z,13.70
2023-04-30T08:39:13.320Z,13.87
2023-04-30T08:41:46.496Z,13.82
2023-04-30T08:44:13.618Z,13.95
2023-04-30T08:46:42.153Z,14.03
2023-04-30T08:49:10.176Z,14.11
2023-04-30T08:51:37.595Z,14.13
2023-04-30T08:54:04.701Z,14.24
2023-04-30T08:56:33.579Z,14.28
2023-04-30T08:59:00.814Z,14.35
2023-04-30T09:01:29.694Z,14.40
2023-04-30T09:03:58.232Z,14.53
2023-04-30T09:06:27.402Z,14.61
2023-04-30T09:08:57.377Z,14.67
2023-04-30T09:11:32.822Z,14.61
2023-04-30T09:14:01.775Z,14.66
2023-04-30T09:16:44.464Z,14.76
2023-04-30T09:19:25.955Z,14.91
2023-04-30T09:21:54.105Z,15.02
2023-04-30T09:24:21.241Z,15.14
2023-04-30T09:26:48.801Z,15.15
2023-04-30T09:29:16.861Z,15.22
2023-04-30T09:31:47.225Z,15.16
2023-04-30T09:34:15.199Z,15.27
2023-04-30T09:36:55.440Z,14.97
2023-04-30T09:39:23.187Z,15.11
2023-04-30T09:41:53.152Z,15.15
2023-04-30T09:44:31.540Z,15.09
2023-04-30T09:46:59.279Z,15.34
2023-04-30T09:49:27.627Z,15.21
2023-04-30T09:52:00.833Z,15.42
2023-04-30T09:54:32.236Z,15.58
2023-04-30T09:57:02.223Z,15.60
2023-04-30T09:59:39.513Z,15.71
2023-04-30T10:02:08.261Z,15.82
2023-04-30T10:04:38.172Z,15.83
2023-04-30T10:07:27.171Z,15.93
2023-04-30T10:09:58.991Z,15.91
2023-04-30T10:12:32.031Z,15.94
2023-04-30T10:15:11.432Z,15.96
2023-04-30T10:17:44.314Z,16.11
2023-04-30T10:20:12.892Z,16.16
2023-04-30T10:22:41.767Z,15.89
2023-04-30T10:25:13.398Z,16.05
2023-04-30T10:27:40.671Z,16.14
2023-04-30T10:30:10.704Z,16.12
2023-04-30T10:32:46.994Z,15.98
2023-04-30T10:35:26.222Z,16.07
2023-04-30T10:37:59.665Z,16.18
2023-04-30T10:40:27.648Z,16.21
2023-04-30T10:42:55.775Z,16.26
2023-04-30T10:45:39.390Z,16.33
2023-04-30T10:48:07.347Z,16.44
2023-04-30T10:50:46.065Z,16.33
2023-04-30T10:53:17.644Z,16.43
2023-04-30T10:55:52.184Z,16.56
2023-04-30T10:58:34.673Z,16.56
2023-04-30T11:01:10.995Z,16.54
2023-04-30T11:03:42.461Z,16.55
2023-04-30T11:06:15.084Z,16.35
2023-04-30T11:08:46.650Z,16.32
2023-04-30T11:11:24.144Z,16.45
2023-04-30T11:14:01.939Z,16.54
2023-04-30T11:16:35.176Z,16.62
2023-04-30T11:19:14.222Z,16.67
2023-04-30T11:21:42.637Z,16.70
2023-04-30T11:24:09.787Z,16.69
2023-04-30T11:27:03.359Z,16.91
2023-04-30T11:29:31.887Z,16.99
2023-04-30T11:32:04.097Z,16.97
2023-04-30T11:34:31.371Z,17.11
2023-04-30T11:37:00.950Z,17.19
2023-04-30T11:39:29.275Z,17.28
2023-04-30T11:41:56.446Z,17.46
2023-04-30T11:44:26.444Z,17.65
2023-04-30T11:46:54.092Z,17.84
2023-04-30T11:49:21.231Z,18.01
2023-04-30T11:51:50.450Z,18.06
2023-04-30T11:54:18.549Z,18.17
2023-04-30T11:56:49.947Z,18.44
2023-04-30T11:59:17.771Z,18.47
2023-04-30T12:01:45.256Z,18.42
2023-04-30T12:04:13.681Z,18.55
2023-04-30T12:06:41.991Z,18.38
2023-04-30T12:09:10.584Z,18.18
2023-04-30T12:11:38.761Z,18.31
2023-04-30T12:14:07.869Z,18.51
2023-04-30T12:16:42.424Z,18.73
2023-04-30T12:19:09.765Z,18.75
2023-04-30T12:21:37.635Z,18.90
2023-04-30T12:24:04.952Z,19.11
2023-04-30T12:26:40.295Z,19.17
2023-04-30T12:29:16.466Z,19.40
2023-04-30T12:31:44.679Z,19.30
2023-04-30T12:34:13.869Z,19.52
2023-04-30T12:36:45.017Z,19.80
2023-04-30T12:39:15.977Z,19.89
2023-04-30T12:41:48.811Z,19.97
2023-04-30T12:44:27.514Z,19.88
2023-04-30T12:46:57.621Z,20.05
2023-04-30T12:49:27.273Z,20.27
2023-04-30T12:52:07.430Z,20.28
2023-04-30T12:54:36.256Z,20.47
2023-04-30T12:57:12.221Z,20.87
2023-04-30T12:59:40.575Z,20.94
2023-04-30T13:02:12.938Z,20.85
2023-04-30T13:04:41.621Z,20.56
2023-04-30T13:07:08.986Z,20.88
2023-04-30T13:09:37.241Z,20.70
2023-04-30T13:12:04.863Z,20.29
2023-04-30T13:14:32.756Z,19.67
2023-04-30T13:17:00.651Z,19.74
2023-04-30T13:19:27.707Z,20.02
2023-04-30T13:21:58.615Z,20.35
2023-04-30T13:24:25.890Z,21.08
2023-04-30T13:26:53.408Z,21.92
2023-04-30T13:29:23.125Z,22.29
2023-04-30T13:31:50.354Z,21.87
2023-04-30T13:34:17.618Z,21.01
2023-04-30T13:36:46.751Z,20.77
2023-04-30T13:39:13.986Z,20.66
2023-04-30T13:41:41.195Z,20.90
2023-04-30T13:44:08.533Z,21.30
2023-04-30T13:46:36.011Z,22.25
2023-04-30T13:49:03.652Z,22.21
2023-04-30T13:51:31.013Z,21.84
2023-04-30T13:53:58.115Z,21.20
2023-04-30T13:56:25.857Z,20.53
2023-04-30T13:58:53.233Z,19.86
2023-04-30T14:01:20.382Z,19.35
2023-04-30T14:03:48.251Z,19.17
2023-04-30T14:06:16.029Z,18.99
2023-04-30T14:08:43.116Z,18.82
2023-04-30T14:11:10.291Z,18.73
2023-04-30T14:13:37.415Z,19.55
2023-04-30T14:16:04.757Z,20.68
2023-04-30T14:18:32.573Z,21.70
2023-04-30T14:20:59.627Z,22.47
2023-04-30T14:23:28.782Z,22.41
2023-04-30T14:25:56.466Z,22.26
2023-04-30T14:28:24.235Z,21.45
2023-04-30T14:30:51.348Z,20.86
2023-04-30T14:33:18.569Z,20.34
2023-04-30T14:35:48.315Z,20.04
2023-04-30T14:38:16.297Z,19.75
2023-04-30T14:40:43.950Z,19.64
2023-04-30T14:43:11.042Z,19.45
2023-04-30T14:45:39.916Z,19.53
2023-04-30T14:48:07.439Z,19.77
2023-04-30T14:50:34.596Z,20.62
2023-04-30T14:53:01.941Z,21.38
2023-04-30T14:55:29.105Z,21.79
2023-04-30T14:57:56.310Z,21.41
2023-04-30T15:00:24.360Z,21.27
2023-04-30T15:02:51.580Z,21.16
2023-04-30T15:05:19.087Z,21.24
2023-04-30T15:07:46.612Z,21.09
2023-04-30T15:10:13.733Z,20.88
2023-04-30T15:12:40.949Z,21.10
2023-04-30T15:15:08.525Z,21.44
2023-04-30T15:17:37.323Z,21.53
2023-04-30T15:20:08.748Z,21.57
2023-04-30T15:22:35.849Z,21.51
2023-04-30T15:25:03.889Z,21.19
2023-04-30T15:27:33.190Z,20.71
2023-04-30T15:30:01.759Z,20.38
2023-04-30T15:32:28.873Z,19.83
2023-04-30T15:34:55.906Z,19.56
2023-04-30T15:37:23.381Z,19.38
2023-04-30T15:39:50.498Z,19.25
2023-04-30T15:42:17.573Z,19.16
2023-04-30T15:44:47.195Z,19.20
2023-04-30T15:47:14.251Z,19.27
2023-04-30T15:49:41.361Z,19.42
2023-04-30T15:52:08.517Z,19.55
2023-04-30T15:54:35.808Z,19.86
2023-04-30T15:57:04.363Z,20.24
2023-04-30T15:59:31.599Z,20.59
2023-04-30T16:01:58.811Z,21.03
2023-04-30T16:04:26.026Z,21.06
2023-04-30T16:06:54.219Z,21.27
2023-04-30T16:09:21.483Z,21.57
2023-04-30T16:11:49.220Z,21.74
2023-04-30T16:14:16.575Z,21.81
2023-04-30T16:16:43.804Z,22.35
2023-04-30T16:19:12.476Z,22.49
2023-04-30T16:21:40.595Z,22.85
2023-04-30T16:24:09.682Z,22.69
2023-04-30T16:26:37.166Z,22.73
2023-04-30T16:29:04.579Z,23.29
2023-04-30T16:31:32.309Z,23.29
2023-04-30T16:33:59.497Z,23.17
2023-04-30T16:36:27.987Z,23.10
2023-04-30T16:38:57.904Z,23.00
2023-04-30T16:41:25.961Z,23.19
2023-04-30T16:43:53.355Z,23.29
2023-04-30T16:46:20.546Z,23.16
2023-04-30T16:48:48.371Z,22.97
2023-04-30T16:51:15.433Z,22.25
2023-04-30T16:53:42.903Z,21.60
2023-04-30T16:56:09.964Z,20.84
2023-04-30T16:58:37.941Z,20.18
2023-04-30T17:01:05.264Z,19.99
2023-04-30T17:03:34.662Z,19.90
2023-04-30T17:06:02.315Z,19.76
2023-04-30T17:08:29.471Z,19.69
2023-04-30T17:10:56.794Z,19.48
2023-04-30T17:13:24.371Z,19.20
2023-04-30T17:15:51.506Z,19.00
2023-04-30T17:18:19.179Z,18.77
2023-04-30T17:20:47.917Z,18.70
2023-04-30T17:23:15.408Z,18.59
2023-04-30T17:25:42.968Z,18.44
2023-04-30T17:28:10.082Z,18.39
2023-04-30T17:30:37.264Z,18.33
2023-04-30T17:33:05.992Z,18.30
2023-04-30T17:35:34.035Z,18.27
2023-04-30T17:38:04.345Z,18.21
2023-04-30T17:40:32.612Z,18.16
2023-04-30T17:42:59.767Z,18.12
2023-04-30T17:45:26.999Z,17.98
2023-04-30T17:47:54.414Z,17.85
2023-04-30T17:50:21.944Z,17.75
2023-04-30T17:52:50.228Z,17.64
2023-04-30T17:55:17.356Z,17.57
2023-04-30T17:57:44.438Z,17.45
2023-04-30T18:00:12.462Z,17.36
2023-04-30T18:02:39.795Z,17.29
2023-04-30T18:05:07.379Z,17.24
2023-04-30T18:07:34.522Z,17.12
2023-04-30T18:10:01.875Z,17.03
2023-04-30T18:12:29.166Z,16.95
2023-04-30T18:14:56.288Z,16.85
2023-04-30T18:17:23.397Z,16.81
2023-04-30T18:19:50.694Z,16.67
2023-04-30T18:22:19.055Z,16.66
2023-04-30T18:24:46.334Z,16.56
2023-04-30T18:27:13.973Z,16.55
2023-04-30T18:29:41.929Z,16.46
2023-04-30T18:32:09.241Z,16.42
2023-04-30T18:34:37.907Z,16.30
2023-04-30T18:37:05.026Z,16.25
2023-04-30T18:39:32.204Z,16.17
2023-04-30T18:41:59.439Z,16.13
2023-04-30T18:44:32.524Z,16.08
2023-04-30T18:46:59.668Z,15.96
2023-04-30T18:49:26.845Z,15.93
2023-04-30T18:51:55.455Z,15.86
2023-04-30T18:54:25.574Z,15.77
2023-04-30T18:56:53.410Z,15.68
2023-04-30T18:59:22.213Z,15.62
2023-04-30T19:01:52.317Z,15.58
2023-04-30T19:04:19.465Z,15.54
2023-04-30T19:06:49.561Z,15.43
2023-04-30T19:09:17.304Z,15.32
2023-04-30T19:11:44.519Z,15.21
2023-04-30T19:14:11.735Z,15.10
2023-04-30T19:16:38.997Z,15.08
2023-04-30T19:19:06.441Z,14.99
2023-04-30T19:21:36.199Z,14.94
2023-04-30T19:24:03.559Z,14.92
2023-04-30T19:26:32.058Z,14.84
2023-04-30T19:29:00.138Z,14.81
2023-04-30T19:31:27.610Z,14.79
2023-04-30T19:33:55.882Z,14.72
2023-04-30T19:36:23.455Z,14.66
2023-04-30T19:38:54.653Z,14.54
2023-04-30T19:41:22.265Z,14.53
2023-04-30T19:43:49.508Z,14.47
2023-04-30T19:46:16.789Z,14.42
2023-04-30T19:48:46.105Z,14.41
2023-04-30T19:51:13.251Z,14.35
2023-04-30T19:53:40.414Z,14.24
2023-04-30T19:56:08.785Z,14.22
2023-04-30T19:58:36.240Z,14.16
2023-04-30T20:01:05.307Z,14.12
2023-04-30T20:03:34.168Z,14.08
2023-04-30T20:06:02.836Z,14.07
2023-04-30T20:08:30.016Z,14.03
2023-04-30T20:10:57.323Z,14.04
2023-04-30T20:13:25.153Z,14.01
2023-04-30T20:15:53.061Z,14.00
2023-04-30T20:18:20.456Z,13.97
2023-04-30T20:20:48.655Z,13.98
2023-04-30T20:23:17.634Z,13.95
2023-04-30T20:25:46.606Z,13.89
2023-04-30T20:28:15.392Z,13.84
2023-04-30T20:30:43.207Z,13.83
2023-04-30T20:33:12.166Z,13.81
2023-04-30T20:35:46.424Z,13.76
2023-04-30T20:38:14.512Z,13.72
2023-04-30T20:40:41.708Z,13.71
2023-04-30T20:43:10.965Z,13.65
2023-04-30T20:45:38.356Z,13.57
2023-04-30T20:48:06.751Z,13.57
2023-04-30T20:50:34.206Z,13.55
2023-04-30T20:53:01.657Z,13.48
2023-04-30T20:55:28.718Z,13.47
2023-04-30T20:57:55.779Z,13.43
2023-04-30T21:00:23.656Z,13.39
2023-04-30T21:02:53.273Z,13.37
2023-04-30T21:05:20.946Z,13.31
2023-04-30T21:07:48.075Z,13.27
2023-04-30T21:10:15.569Z,13.27
2023-04-30T21:12:42.977Z,13.23
2023-04-30T21:15:10.602Z,13.17
2023-04-30T21:17:37.795Z,13.14
2023-04-30T21:20:05.416Z,13.10
2023-04-30T21:22:33.072Z,13.05
2023-04-30T21:25:00.596Z,12.99
2023-04-30T21:27:27.964Z,12.89
2023-04-30T21:29:55.476Z,12.88
2023-04-30T21:32:24.076Z,12.86
2023-04-30T21:34:51.215Z,12.80
2023-04-30T21:37:18.280Z,12.79
2023-04-30T21:39:45.592Z,12.79
2023-04-30T21:42:12.660Z,12.78
2023-04-30T21:44:40.019Z,12.73
2023-04-30T21:47:10.459Z,12.68
2023-04-30T21:49:37.611Z,12.60
2023-04-30T21:52:08.074Z,12.56
2023-04-30T21:54:35.297Z,12.54
2023-04-30T21:57:02.676Z,12.52
2023-04-30T21:59:29.729Z,12.45
2023-04-30T22:01:57.056Z,12.45
2023-04-30T22:04:25.322Z,12.47
2023-04-30T22:06:52.730Z,12.44
2023-04-30T22:09:20.051Z,12.39
2023-04-30T22:11:47.124Z,12.40
2023-04-30T22:14:14.283Z,12.38
2023-04-30T22:16:41.506Z,12.33
2023-04-30T22:19:08.698Z,12.33
2023-04-30T22:21:35.845Z,12.30
2023-04-30T22:24:03.014Z,12.30
2023-04-30T22:26:30.159Z,12.28
2023-04-30T22:28:57.933Z,12.24
2023-04-30T22:31:25.181Z,12.23
2023-04-30T22:33:52.331Z,12.25
2023-04-30T22:36:19.353Z,12.22
2023-04-30T22:38:46.486Z,12.20
2023-04-30T22:41:13.630Z,12.14
2023-04-30T22:43:40.986Z,12.12
2023-04-30T22:46:08.079Z,12.07
2023-04-30T22:48:35.493Z,12.02
2023-04-30T22:51:03.314Z,11.99
2023-04-30T22:53:30.504Z,11.97
2023-04-30T22:55:57.672Z,11.96
2023-04-30T22:58:27.575Z,11.92
2023-04-30T23:00:55.158Z,11.92
2023-04-30T23:03:22.456Z,11.87
2023-04-30T23:05:51.540Z,11.80
2023-04-30T23:08:19.153Z,11.75
2023-04-30T23:10:46.784Z,11.72
2023-04-30T23:13:14.720Z,11.66
2023-04-30T23:15:43.485Z,11.66
2023-04-30T23:18:11.348Z,11.62
2023-04-30T23:20:39.906Z,11.58
2023-04-30T23:23:06.961Z,11.56
2023-04-30T23:25:34.050Z,11.51
2023-04-30T23:28:01.565Z,11.49
2023-04-30T23:30:28.841Z,11.46
2023-04-30T23:32:56.357Z,11.40
2023-04-30T23:35:23.985Z,11.36
2023-04-30T23:37:51.499Z,11.32
2023-04-30T23:40:19.766Z,11.23
2023-04-30T23:42:46.985Z,11.24
2023-04-30T23:45:14.093Z,11.21
2023-04-30T23:47:41.250Z,11.16
2023-04-30T23:50:08.946Z,11.09
2023-04-30T23:52:36.804Z,11.08
2023-04-30T23:55:04.103Z,11.05
2023-04-30T23:57:31.254Z,11.02
2023-04-30T23:59:58.607Z,11.00
